createdAt,value
2017-11-28T00:00:02.923Z,934.54
2017-11-28T00:00:30.819Z,934.55
2017-11-28T00:00:59.223Z,934.5
2017-11-28T00:01:27.705Z,934.52
2017-11-28T00:01:55.720Z,934.51
2017-11-28T00:02:23.943Z,934.48
2017-11-28T00:02:52.031Z,934.53
2017-11-28T00:03:20.148Z,934.51
2017-11-28T00:03:48.478Z,934.49
2017-11-28T00:04:16.557Z,934.51
2017-11-28T00:04:44.758Z,934.53
2017-11-28T00:05:12.968Z,934.48
2017-11-28T00:05:41.059Z,934.51
2017-11-28T00:06:09.290Z,934.56
2017-11-28T00:06:37.458Z,934.56
2017-11-28T00:07:05.656Z,934.57
2017-11-28T00:07:33.749Z,934.6
2017-11-28T00:08:01.723Z,934.58
2017-11-28T00:08:29.697Z,934.6
2017-11-28T00:08:57.772Z,934.58
2017-11-28T00:09:25.634Z,934.61
2017-11-28T00:09:53.702Z,934.58
2017-11-28T00:10:21.960Z,934.6
2017-11-28T00:10:50.017Z,934.58
2017-11-28T00:11:18.070Z,934.58
2017-11-28T00:11:46.120Z,934.6
2017-11-28T00:12:14.092Z,934.61
2017-11-28T00:12:42.259Z,934.63
2017-11-28T00:13:10.471Z,934.63
2017-11-28T00:13:38.542Z,934.68
2017-11-28T00:14:06.926Z,934.67
2017-11-28T00:14:35.081Z,934.71
2017-11-28T00:15:03.360Z,934.7
2017-11-28T00:15:31.561Z,934.73
2017-11-28T00:15:59.774Z,934.71
2017-11-28T00:16:27.802Z,934.7
2017-11-28T00:16:55.966Z,934.73
2017-11-28T00:17:24.167Z,934.71
2017-11-28T00:17:52.135Z,934.69
2017-11-28T00:18:20.193Z,934.74
2017-11-28T00:18:48.434Z,934.73
2017-11-28T00:19:16.503Z,934.75
2017-11-28T00:19:44.658Z,934.72
2017-11-28T00:20:12.829Z,934.73
2017-11-28T00:20:41.265Z,934.76
2017-11-28T00:21:09.494Z,934.77
2017-11-28T00:21:37.718Z,934.77
2017-11-28T00:22:05.901Z,934.8
2017-11-28T00:22:33.960Z,934.75
2017-11-28T00:23:02.048Z,934.81
2017-11-28T00:23:30.226Z,934.78
2017-11-28T00:23:58.812Z,934.8
2017-11-28T00:24:26.969Z,934.79
2017-11-28T00:24:55.031Z,934.78
2017-11-28T00:25:23.022Z,934.79
2017-11-28T00:25:51.173Z,934.78
2017-11-28T00:26:19.157Z,934.79
2017-11-28T00:26:47.430Z,934.78
2017-11-28T00:27:15.630Z,934.8
2017-11-28T00:27:43.984Z,934.84
2017-11-28T00:28:12.093Z,934.84
2017-11-28T00:28:40.656Z,934.8
2017-11-28T00:29:08.749Z,934.82
2017-11-28T00:29:37.066Z,934.83
2017-11-28T00:30:05.427Z,934.85
2017-11-28T00:30:33.818Z,934.87
2017-11-28T00:31:01.899Z,934.83
2017-11-28T00:31:30.219Z,934.85
2017-11-28T00:31:58.358Z,934.86
2017-11-28T00:32:26.442Z,934.82
2017-11-28T00:32:54.498Z,934.85
2017-11-28T00:33:22.658Z,934.88
2017-11-28T00:33:50.785Z,934.87
2017-11-28T00:34:18.854Z,934.89
2017-11-28T00:34:47.125Z,934.89
2017-11-28T00:35:15.443Z,934.88
2017-11-28T00:35:43.533Z,934.89
2017-11-28T00:36:11.515Z,934.85
2017-11-28T00:36:39.548Z,934.89
2017-11-28T00:37:07.759Z,934.87
2017-11-28T00:37:36.026Z,934.88
2017-11-28T00:38:04.032Z,934.86
2017-11-28T00:38:32.214Z,934.83
2017-11-28T00:39:00.279Z,934.86
2017-11-28T00:39:28.422Z,934.88
2017-11-28T00:39:56.586Z,934.88
2017-11-28T00:40:24.877Z,934.87
2017-11-28T00:40:53.044Z,934.88
2017-11-28T00:41:21.111Z,934.87
2017-11-28T00:41:49.302Z,934.91
2017-11-28T00:42:17.825Z,934.91
2017-11-28T00:42:45.967Z,934.94
2017-11-28T00:43:14.099Z,934.93
2017-11-28T00:43:42.337Z,934.96
2017-11-28T00:44:10.549Z,934.95
2017-11-28T00:44:38.738Z,934.94
2017-11-28T00:45:06.878Z,934.95
2017-11-28T00:45:35.063Z,934.96
2017-11-28T00:46:03.195Z,934.94
2017-11-28T00:46:31.652Z,934.94
2017-11-28T00:46:59.739Z,934.96
2017-11-28T00:47:27.902Z,934.98
2017-11-28T00:47:56.077Z,934.97
2017-11-28T00:48:24.116Z,934.99
2017-11-28T00:48:52.480Z,935.04
2017-11-28T00:49:20.601Z,935.01
2017-11-28T00:49:48.791Z,934.99
2017-11-28T00:50:17.083Z,935.05
2017-11-28T00:50:45.614Z,935.05
2017-11-28T00:51:13.679Z,935.02
2017-11-28T00:51:41.711Z,935.06
2017-11-28T00:52:09.693Z,935.07
2017-11-28T00:52:37.906Z,935.07
2017-11-28T00:53:05.945Z,935.07
2017-11-28T00:53:34.234Z,935.08
2017-11-28T00:54:02.334Z,935.08
2017-11-28T00:54:30.505Z,935.08
2017-11-28T00:54:58.650Z,935.08
2017-11-28T00:55:26.972Z,935.07
2017-11-28T00:55:55.328Z,935.06
2017-11-28T00:56:23.585Z,935.05
2017-11-28T00:56:51.726Z,935.03
2017-11-28T00:57:19.812Z,935.04
2017-11-28T00:57:48.003Z,935.01
2017-11-28T00:58:16.210Z,935.02
2017-11-28T00:58:44.168Z,934.99
2017-11-28T00:59:12.327Z,934.99
2017-11-28T00:59:40.584Z,934.98
2017-11-28T01:00:08.857Z,935.03
2017-11-28T01:00:37.104Z,935.01
2017-11-28T01:01:05.270Z,935
2017-11-28T01:01:33.421Z,935.01
2017-11-28T01:02:01.592Z,935.02
2017-11-28T01:02:29.652Z,934.99
2017-11-28T01:02:57.593Z,935
2017-11-28T01:03:25.689Z,935.03
2017-11-28T01:03:53.878Z,935.02
2017-11-28T01:04:21.919Z,935.01
2017-11-28T01:04:50.137Z,934.99
2017-11-28T01:05:18.300Z,934.99
2017-11-28T01:05:46.501Z,934.98
2017-11-28T01:06:14.551Z,934.95
2017-11-28T01:06:42.617Z,934.98
2017-11-28T01:07:10.858Z,934.98
2017-11-28T01:07:38.922Z,934.96
2017-11-28T01:08:07.111Z,934.99
2017-11-28T01:08:35.118Z,935.01
2017-11-28T01:09:03.290Z,934.99
2017-11-28T01:09:31.455Z,935.03
2017-11-28T01:09:59.720Z,934.99
2017-11-28T01:10:27.899Z,934.94
2017-11-28T01:10:56.060Z,934.96
2017-11-28T01:11:24.115Z,934.98
2017-11-28T01:11:52.334Z,934.98
2017-11-28T01:12:20.520Z,934.97
2017-11-28T01:12:48.759Z,934.99
2017-11-28T01:13:16.919Z,934.98
2017-11-28T01:13:45.001Z,935
2017-11-28T01:14:13.060Z,934.99
2017-11-28T01:14:41.030Z,935.02
2017-11-28T01:15:09.428Z,934.98
2017-11-28T01:15:37.364Z,935.05
2017-11-28T01:16:05.695Z,935.05
2017-11-28T01:16:33.749Z,935.03
2017-11-28T01:17:01.780Z,935.02
2017-11-28T01:17:29.949Z,935
2017-11-28T01:17:58.098Z,935.01
2017-11-28T01:18:26.219Z,935
2017-11-28T01:18:54.417Z,934.99
2017-11-28T01:19:22.455Z,934.98
2017-11-28T01:19:50.565Z,934.95
2017-11-28T01:20:18.707Z,934.98
2017-11-28T01:20:46.760Z,934.96
2017-11-28T01:21:14.887Z,934.95
2017-11-28T01:21:42.934Z,935
2017-11-28T01:22:11.006Z,935.01
2017-11-28T01:22:39.030Z,935
2017-11-28T01:23:07.116Z,935.01
2017-11-28T01:23:35.275Z,935.04
2017-11-28T01:24:03.186Z,935.04
2017-11-28T01:24:31.200Z,935.06
2017-11-28T01:24:59.258Z,935.05
2017-11-28T01:25:27.399Z,935.07
2017-11-28T01:25:55.256Z,935.03
2017-11-28T01:26:23.008Z,935.05
2017-11-28T01:26:50.995Z,935.04
2017-11-28T01:27:19.056Z,935.03
2017-11-28T01:27:47.262Z,935.05
2017-11-28T01:28:15.635Z,935.03
2017-11-28T01:28:43.895Z,935.02
2017-11-28T01:29:12.020Z,935.03
2017-11-28T01:29:40.077Z,935.01
2017-11-28T01:30:08.157Z,935.02
2017-11-28T01:30:36.226Z,935
2017-11-28T01:31:04.290Z,934.98
2017-11-28T01:31:32.516Z,935
2017-11-28T01:32:00.867Z,934.94
2017-11-28T01:32:28.980Z,935
2017-11-28T01:32:57.089Z,934.99
2017-11-28T01:33:25.215Z,934.96
2017-11-28T01:33:53.365Z,934.95
2017-11-28T01:34:21.476Z,934.96
2017-11-28T01:34:49.606Z,934.98
2017-11-28T01:35:17.757Z,934.96
2017-11-28T01:35:45.733Z,934.95
2017-11-28T01:36:14.122Z,934.92
2017-11-28T01:36:42.307Z,934.9
2017-11-28T01:37:10.555Z,934.91
2017-11-28T01:37:38.702Z,934.94
2017-11-28T01:38:06.866Z,934.92
2017-11-28T01:38:35.117Z,934.88
2017-11-28T01:39:03.308Z,934.89
2017-11-28T01:39:31.611Z,934.88
2017-11-28T01:39:59.684Z,934.9
2017-11-28T01:40:27.983Z,934.88
2017-11-28T01:40:56.084Z,934.83
2017-11-28T01:41:24.147Z,934.87
2017-11-28T01:41:52.206Z,934.88
2017-11-28T01:42:20.345Z,934.84
2017-11-28T01:42:48.503Z,934.87
2017-11-28T01:43:16.770Z,934.88
2017-11-28T01:43:44.928Z,934.85
2017-11-28T01:44:12.972Z,934.85
2017-11-28T01:44:41.253Z,934.87
2017-11-28T01:45:09.319Z,934.86
2017-11-28T01:45:37.245Z,934.89
2017-11-28T01:46:05.474Z,934.87
2017-11-28T01:46:33.535Z,934.85
2017-11-28T01:47:01.544Z,934.86
2017-11-28T01:47:29.608Z,934.84
2017-11-28T01:47:57.814Z,934.85
2017-11-28T01:48:26.059Z,934.83
2017-11-28T01:48:54.079Z,934.81
2017-11-28T01:49:22.051Z,934.79
2017-11-28T01:49:50.086Z,934.81
2017-11-28T01:50:18.533Z,934.83
2017-11-28T01:50:46.663Z,934.84
2017-11-28T01:51:14.831Z,934.81
2017-11-28T01:51:43.172Z,934.84
2017-11-28T01:52:11.256Z,934.85
2017-11-28T01:52:39.563Z,934.81
2017-11-28T01:53:07.860Z,934.86
2017-11-28T01:53:35.988Z,934.86
2017-11-28T01:54:04.088Z,934.87
2017-11-28T01:54:32.261Z,934.91
2017-11-28T01:55:00.287Z,934.91
2017-11-28T01:55:28.356Z,934.88
2017-11-28T01:55:56.440Z,934.9
2017-11-28T01:56:24.486Z,934.93
2017-11-28T01:56:52.807Z,934.95
2017-11-28T01:57:21.077Z,934.88
2017-11-28T01:57:49.293Z,934.95
2017-11-28T01:58:17.467Z,934.89
2017-11-28T01:58:45.760Z,934.92
2017-11-28T01:59:13.900Z,934.91
2017-11-28T01:59:42.017Z,934.91
2017-11-28T02:00:10.220Z,934.92
2017-11-28T02:00:38.416Z,934.94
2017-11-28T02:01:06.472Z,934.94
2017-11-28T02:01:34.651Z,934.97
2017-11-28T02:02:02.884Z,934.97
2017-11-28T02:02:31.304Z,934.95
2017-11-28T02:02:59.474Z,934.97
2017-11-28T02:03:27.622Z,934.95
2017-11-28T02:03:55.649Z,934.95
2017-11-28T02:04:23.821Z,934.94
2017-11-28T02:04:52.143Z,934.96
2017-11-28T02:05:20.235Z,934.94
2017-11-28T02:05:48.315Z,934.96
2017-11-28T02:06:16.438Z,934.95
2017-11-28T02:06:44.548Z,934.92
2017-11-28T02:07:12.457Z,934.93
2017-11-28T02:07:40.765Z,934.89
2017-11-28T02:08:08.892Z,934.9
2017-11-28T02:08:37.056Z,934.88
2017-11-28T02:09:05.126Z,934.84
2017-11-28T02:09:33.303Z,934.84
2017-11-28T02:10:01.632Z,934.85
2017-11-28T02:10:29.800Z,934.82
2017-11-28T02:10:58.021Z,934.83
2017-11-28T02:11:26.222Z,934.84
2017-11-28T02:11:54.352Z,934.84
2017-11-28T02:12:22.523Z,934.87
2017-11-28T02:12:50.873Z,934.89
2017-11-28T02:13:19.033Z,934.85
2017-11-28T02:13:47.235Z,934.89
2017-11-28T02:14:15.319Z,934.87
2017-11-28T02:14:43.293Z,934.85
2017-11-28T02:15:11.603Z,934.85
2017-11-28T02:15:39.878Z,934.87
2017-11-28T02:16:08.032Z,934.89
2017-11-28T02:16:36.405Z,934.9
2017-11-28T02:17:04.490Z,934.88
2017-11-28T02:17:32.653Z,934.86
2017-11-28T02:18:00.820Z,934.87
2017-11-28T02:18:28.982Z,934.84
2017-11-28T02:18:57.278Z,934.82
2017-11-28T02:19:25.354Z,934.85
2017-11-28T02:19:53.282Z,934.82
2017-11-28T02:20:21.428Z,934.84
2017-11-28T02:20:49.518Z,934.81
2017-11-28T02:21:17.602Z,934.83
2017-11-28T02:21:45.568Z,934.8
2017-11-28T02:22:13.716Z,934.81
2017-11-28T02:22:41.870Z,934.82
2017-11-28T02:23:10.081Z,934.79
2017-11-28T02:23:38.246Z,934.82
2017-11-28T02:24:06.406Z,934.81
2017-11-28T02:24:34.643Z,934.82
2017-11-28T02:25:02.867Z,934.79
2017-11-28T02:25:31.169Z,934.83
2017-11-28T02:25:59.181Z,934.83
2017-11-28T02:26:27.289Z,934.85
2017-11-28T02:26:55.443Z,934.82
2017-11-28T02:27:23.561Z,934.85
2017-11-28T02:27:51.698Z,934.83
2017-11-28T02:28:19.837Z,934.84
2017-11-28T02:28:47.885Z,934.84
2017-11-28T02:29:16.114Z,934.87
2017-11-28T02:29:44.274Z,934.81
2017-11-28T02:30:12.494Z,934.83
2017-11-28T02:30:40.674Z,934.82
2017-11-28T02:31:09.054Z,934.81
2017-11-28T02:31:37.409Z,934.81
2017-11-28T02:32:05.744Z,934.81
2017-11-28T02:32:33.906Z,934.78
2017-11-28T02:33:02.055Z,934.78
2017-11-28T02:33:30.138Z,934.77
2017-11-28T02:33:58.424Z,934.77
2017-11-28T02:34:26.587Z,934.81
2017-11-28T02:34:54.662Z,934.85
2017-11-28T02:35:22.746Z,934.81
2017-11-28T02:35:50.916Z,934.82
2017-11-28T02:36:19.051Z,934.85
2017-11-28T02:36:47.141Z,934.84
2017-11-28T02:37:15.335Z,934.86
2017-11-28T02:37:43.492Z,934.88
2017-11-28T02:38:12.758Z,934.85
2017-11-28T02:38:40.925Z,934.84
2017-11-28T02:39:09.005Z,934.86
2017-11-28T02:39:37.011Z,934.86
2017-11-28T02:40:05.190Z,934.85
2017-11-28T02:40:33.233Z,934.83
2017-11-28T02:41:01.360Z,934.85
2017-11-28T02:41:29.374Z,934.89
2017-11-28T02:41:57.463Z,934.84
2017-11-28T02:42:25.661Z,934.87
2017-11-28T02:42:53.814Z,934.86
2017-11-28T02:43:21.977Z,934.87
2017-11-28T02:43:50.107Z,934.87
2017-11-28T02:44:18.318Z,934.86
2017-11-28T02:44:46.595Z,934.85
2017-11-28T02:45:14.681Z,934.86
2017-11-28T02:45:42.837Z,934.89
2017-11-28T02:46:10.902Z,934.88
2017-11-28T02:46:39.068Z,934.87
2017-11-28T02:47:07.327Z,934.88
2017-11-28T02:47:35.490Z,934.86
2017-11-28T02:48:03.816Z,934.88
2017-11-28T02:48:31.938Z,934.88
2017-11-28T02:48:59.967Z,934.88
2017-11-28T02:49:28.089Z,934.86
2017-11-28T02:49:56.169Z,934.84
2017-11-28T02:50:24.368Z,934.84
2017-11-28T02:50:52.438Z,934.83
2017-11-28T02:51:20.613Z,934.81
2017-11-28T02:51:48.780Z,934.84
2017-11-28T02:52:16.947Z,934.83
2017-11-28T02:52:44.969Z,934.82
2017-11-28T02:53:13.010Z,934.81
2017-11-28T02:53:41.237Z,934.8
2017-11-28T02:54:09.374Z,934.81
2017-11-28T02:54:37.718Z,934.78
2017-11-28T02:55:06.014Z,934.8
2017-11-28T02:55:34.120Z,934.83
2017-11-28T02:56:02.187Z,934.81
2017-11-28T02:56:30.323Z,934.83
2017-11-28T02:56:58.470Z,934.83
2017-11-28T02:57:26.441Z,934.83
2017-11-28T02:57:54.607Z,934.82
2017-11-28T02:58:22.857Z,934.81
2017-11-28T02:58:51.041Z,934.84
2017-11-28T02:59:19.242Z,934.8
2017-11-28T02:59:47.439Z,934.77
2017-11-28T03:00:15.392Z,934.78
2017-11-28T03:00:43.620Z,934.79
2017-11-28T03:01:11.944Z,934.78
2017-11-28T03:01:40.111Z,934.78
2017-11-28T03:02:08.209Z,934.78
2017-11-28T03:02:36.366Z,934.75
2017-11-28T03:03:04.306Z,934.79
2017-11-28T03:03:32.547Z,934.76
2017-11-28T03:04:00.714Z,934.76
2017-11-28T03:04:28.695Z,934.74
2017-11-28T03:04:56.841Z,934.75
2017-11-28T03:05:24.899Z,934.73
2017-11-28T03:05:52.844Z,934.8
2017-11-28T03:06:20.902Z,934.77
2017-11-28T03:06:49.115Z,934.77
2017-11-28T03:07:17.298Z,934.78
2017-11-28T03:07:45.282Z,934.78
2017-11-28T03:08:13.551Z,934.79
2017-11-28T03:08:41.525Z,934.8
2017-11-28T03:09:09.708Z,934.79
2017-11-28T03:09:37.843Z,934.8
2017-11-28T03:10:05.929Z,934.76
2017-11-28T03:10:34.225Z,934.77
2017-11-28T03:11:02.287Z,934.74
2017-11-28T03:11:30.425Z,934.75
2017-11-28T03:11:58.842Z,934.77
2017-11-28T03:12:26.990Z,934.75
2017-11-28T03:12:55.164Z,934.76
2017-11-28T03:13:23.451Z,934.74
2017-11-28T03:13:51.716Z,934.7
2017-11-28T03:14:19.788Z,934.75
2017-11-28T03:14:47.962Z,934.73
2017-11-28T03:15:16.127Z,934.73
2017-11-28T03:15:43.988Z,934.72
2017-11-28T03:16:11.989Z,934.75
2017-11-28T03:16:40.097Z,934.74
2017-11-28T03:17:08.323Z,934.73
2017-11-28T03:17:36.481Z,934.73
2017-11-28T03:18:04.553Z,934.76
2017-11-28T03:18:32.643Z,934.73
2017-11-28T03:19:00.940Z,934.73
2017-11-28T03:19:29.002Z,934.69
2017-11-28T03:19:57.186Z,934.7
2017-11-28T03:20:25.343Z,934.67
2017-11-28T03:20:53.300Z,934.7
2017-11-28T03:21:21.402Z,934.68
2017-11-28T03:21:49.356Z,934.69
2017-11-28T03:22:17.550Z,934.66
2017-11-28T03:22:45.504Z,934.66
2017-11-28T03:23:13.524Z,934.69
2017-11-28T03:23:41.737Z,934.68
2017-11-28T03:24:09.852Z,934.67
2017-11-28T03:24:38.179Z,934.68
2017-11-28T03:25:06.361Z,934.68
2017-11-28T03:25:34.910Z,934.67
2017-11-28T03:26:02.774Z,934.68
2017-11-28T03:26:30.731Z,934.66
2017-11-28T03:26:58.885Z,934.7
2017-11-28T03:27:27.008Z,934.66
2017-11-28T03:27:55.136Z,934.65
2017-11-28T03:28:23.454Z,934.65
2017-11-28T03:28:51.697Z,934.65
2017-11-28T03:29:19.841Z,934.62
2017-11-28T03:29:47.965Z,934.64
2017-11-28T03:30:16.048Z,934.63
2017-11-28T03:30:44.207Z,934.61
2017-11-28T03:31:12.349Z,934.61
2017-11-28T03:31:40.601Z,934.62
2017-11-28T03:32:08.658Z,934.61
2017-11-28T03:32:36.877Z,934.62
2017-11-28T03:33:05.000Z,934.58
2017-11-28T03:33:32.988Z,934.57
2017-11-28T03:34:01.230Z,934.59
2017-11-28T03:34:29.442Z,934.53
2017-11-28T03:34:57.531Z,934.59
2017-11-28T03:35:25.728Z,934.53
2017-11-28T03:35:53.898Z,934.53
2017-11-28T03:36:21.981Z,934.53
2017-11-28T03:36:50.137Z,934.54
2017-11-28T03:37:18.170Z,934.56
2017-11-28T03:37:46.327Z,934.56
2017-11-28T03:38:14.372Z,934.54
2017-11-28T03:38:42.610Z,934.5
2017-11-28T03:39:10.765Z,934.51
2017-11-28T03:39:39.045Z,934.52
2017-11-28T03:40:07.260Z,934.51
2017-11-28T03:40:35.124Z,934.52
2017-11-28T03:41:03.314Z,934.47
2017-11-28T03:41:31.492Z,934.5
2017-11-28T03:41:59.630Z,934.48
2017-11-28T03:42:27.673Z,934.51
2017-11-28T03:42:55.739Z,934.5
2017-11-28T03:43:23.842Z,934.47
2017-11-28T03:43:51.949Z,934.49
2017-11-28T03:44:20.015Z,934.42
2017-11-28T03:44:48.318Z,934.46
2017-11-28T03:45:16.585Z,934.43
2017-11-28T03:45:44.494Z,934.44
2017-11-28T03:46:12.882Z,934.41
2017-11-28T03:46:40.979Z,934.42
2017-11-28T03:47:09.193Z,934.38
2017-11-28T03:47:37.321Z,934.37
2017-11-28T03:48:05.615Z,934.37
2017-11-28T03:48:33.784Z,934.34
2017-11-28T03:49:01.856Z,934.35
2017-11-28T03:49:29.941Z,934.33
2017-11-28T03:49:58.096Z,934.34
2017-11-28T03:50:26.114Z,934.36
2017-11-28T03:50:54.369Z,934.34
2017-11-28T03:51:22.556Z,934.36
2017-11-28T03:51:50.864Z,934.35
2017-11-28T03:52:18.925Z,934.33
2017-11-28T03:52:47.000Z,934.31
2017-11-28T03:53:15.136Z,934.3
2017-11-28T03:53:43.315Z,934.31
2017-11-28T03:54:11.450Z,934.31
2017-11-28T03:54:39.482Z,934.32
2017-11-28T03:55:07.548Z,934.27
2017-11-28T03:55:35.693Z,934.34
2017-11-28T03:56:03.959Z,934.29
2017-11-28T03:56:32.047Z,934.26
2017-11-28T03:57:00.186Z,934.25
2017-11-28T03:57:28.184Z,934.23
2017-11-28T03:57:56.173Z,934.24
2017-11-28T03:58:24.257Z,934.24
2017-11-28T03:58:52.621Z,934.26
2017-11-28T03:59:20.797Z,934.22
2017-11-28T03:59:48.946Z,934.22
2017-11-28T04:00:17.109Z,934.23
2017-11-28T04:00:45.259Z,934.22
2017-11-28T04:01:13.426Z,934.24
2017-11-28T04:01:41.591Z,934.26
2017-11-28T04:02:09.665Z,934.23
2017-11-28T04:02:37.752Z,934.25
2017-11-28T04:03:06.251Z,934.25
2017-11-28T04:03:34.592Z,934.28
2017-11-28T04:04:02.759Z,934.24
2017-11-28T04:04:30.938Z,934.28
2017-11-28T04:04:58.946Z,934.27
2017-11-28T04:05:26.993Z,934.24
2017-11-28T04:05:55.165Z,934.3
2017-11-28T04:06:23.481Z,934.22
2017-11-28T04:06:51.631Z,934.23
2017-11-28T04:07:19.672Z,934.23
2017-11-28T04:07:47.975Z,934.22
2017-11-28T04:08:16.034Z,934.22
2017-11-28T04:08:44.034Z,934.22
2017-11-28T04:09:12.200Z,934.22
2017-11-28T04:09:40.293Z,934.22
2017-11-28T04:10:08.399Z,934.2
2017-11-28T04:10:36.350Z,934.2
2017-11-28T04:11:04.514Z,934.18
2017-11-28T04:11:32.725Z,934.2
2017-11-28T04:12:00.854Z,934.21
2017-11-28T04:12:29.087Z,934.19
2017-11-28T04:12:57.279Z,934.19
2017-11-28T04:13:25.340Z,934.21
2017-11-28T04:13:53.469Z,934.21
2017-11-28T04:14:21.588Z,934.17
2017-11-28T04:14:49.572Z,934.15
2017-11-28T04:15:17.689Z,934.16
2017-11-28T04:15:45.832Z,934.14
2017-11-28T04:16:14.055Z,934.14
2017-11-28T04:16:42.091Z,934.13
2017-11-28T04:17:10.167Z,934.13
2017-11-28T04:17:38.298Z,934.09
2017-11-28T04:18:06.493Z,934.05
2017-11-28T04:18:34.670Z,934.05
2017-11-28T04:19:02.872Z,934.05
2017-11-28T04:19:30.948Z,934.04
2017-11-28T04:19:59.089Z,934.03
2017-11-28T04:20:27.281Z,934.07
2017-11-28T04:20:55.469Z,934.06
2017-11-28T04:21:23.711Z,934.07
2017-11-28T04:21:51.855Z,933.99
2017-11-28T04:22:20.161Z,934.02
2017-11-28T04:22:48.329Z,934.03
2017-11-28T04:23:16.437Z,934.02
2017-11-28T04:23:44.654Z,933.99
2017-11-28T04:24:12.817Z,934.02
2017-11-28T04:24:40.969Z,934.03
2017-11-28T04:25:09.136Z,934.04
2017-11-28T04:25:37.450Z,934.03
2017-11-28T04:26:05.638Z,934.06
2017-11-28T04:26:33.627Z,934.03
2017-11-28T04:27:01.723Z,934.05
2017-11-28T04:27:29.776Z,934.02
2017-11-28T04:27:57.908Z,934.06
2017-11-28T04:28:25.928Z,934.05
2017-11-28T04:28:53.983Z,934.05
2017-11-28T04:29:22.163Z,934.02
2017-11-28T04:29:50.242Z,933.99
2017-11-28T04:30:18.295Z,934
2017-11-28T04:30:46.640Z,933.98
2017-11-28T04:31:14.688Z,934.01
2017-11-28T04:31:42.966Z,933.99
2017-11-28T04:32:11.138Z,934
2017-11-28T04:32:39.330Z,933.97
2017-11-28T04:33:07.360Z,933.99
2017-11-28T04:33:35.489Z,933.98
2017-11-28T04:34:03.716Z,934.02
2017-11-28T04:34:31.863Z,934.01
2017-11-28T04:34:59.918Z,934.02
2017-11-28T04:35:28.303Z,933.99
2017-11-28T04:35:56.548Z,934.02
2017-11-28T04:36:24.597Z,934.03
2017-11-28T04:36:52.639Z,934.04
2017-11-28T04:37:20.687Z,934
2017-11-28T04:37:48.806Z,933.98
2017-11-28T04:38:17.006Z,933.98
2017-11-28T04:38:45.051Z,933.97
2017-11-28T04:39:13.235Z,933.97
2017-11-28T04:39:41.327Z,933.92
2017-11-28T04:40:09.400Z,933.98
2017-11-28T04:40:37.577Z,933.94
2017-11-28T04:41:06.035Z,933.96
2017-11-28T04:41:34.214Z,933.96
2017-11-28T04:42:02.375Z,933.93
2017-11-28T04:42:30.267Z,933.96
2017-11-28T04:42:58.314Z,933.92
2017-11-28T04:43:26.503Z,933.88
2017-11-28T04:43:54.548Z,933.92
2017-11-28T04:44:22.720Z,933.88
2017-11-28T04:44:50.806Z,933.87
2017-11-28T04:45:18.965Z,933.86
2017-11-28T04:45:47.086Z,933.85
2017-11-28T04:46:15.256Z,933.83
2017-11-28T04:46:43.365Z,933.8
2017-11-28T04:47:11.550Z,933.83
2017-11-28T04:47:39.780Z,933.8
2017-11-28T04:48:07.834Z,933.85
2017-11-28T04:48:36.190Z,933.86
2017-11-28T04:49:04.051Z,933.82
2017-11-28T04:49:32.337Z,933.82
2017-11-28T04:50:00.427Z,933.82
2017-11-28T04:50:28.611Z,933.85
2017-11-28T04:50:56.751Z,933.82
2017-11-28T04:51:24.744Z,933.81
2017-11-28T04:51:52.815Z,933.8
2017-11-28T04:52:20.802Z,933.82
2017-11-28T04:52:48.880Z,933.8
2017-11-28T04:53:17.089Z,933.79
2017-11-28T04:53:45.265Z,933.79
2017-11-28T04:54:13.437Z,933.8
2017-11-28T04:54:41.378Z,933.81
2017-11-28T04:55:09.517Z,933.8
2017-11-28T04:55:37.930Z,933.79
2017-11-28T04:56:06.137Z,933.78
2017-11-28T04:56:34.246Z,933.78
2017-11-28T04:57:02.400Z,933.74
2017-11-28T04:57:30.599Z,933.79
2017-11-28T04:57:58.785Z,933.78
2017-11-28T04:58:26.939Z,933.78
2017-11-28T04:58:55.089Z,933.75
2017-11-28T04:59:23.061Z,933.81
2017-11-28T04:59:51.200Z,933.77
2017-11-28T05:00:19.229Z,933.77
2017-11-28T05:00:47.458Z,933.81
2017-11-28T05:01:15.656Z,933.79
2017-11-28T05:01:43.713Z,933.77
2017-11-28T05:02:11.667Z,933.8
2017-11-28T05:02:39.732Z,933.77
2017-11-28T05:03:07.788Z,933.79
2017-11-28T05:03:35.954Z,933.77
2017-11-28T05:04:04.123Z,933.75
2017-11-28T05:04:32.354Z,933.75
2017-11-28T05:05:00.572Z,933.72
2017-11-28T05:05:28.729Z,933.76
2017-11-28T05:05:56.790Z,933.76
2017-11-28T05:06:24.925Z,933.66
2017-11-28T05:06:53.067Z,933.67
2017-11-28T05:07:21.261Z,933.69
2017-11-28T05:07:49.162Z,933.68
2017-11-28T05:08:17.330Z,933.64
2017-11-28T05:08:45.373Z,933.65
2017-11-28T05:09:13.430Z,933.63
2017-11-28T05:09:41.651Z,933.63
2017-11-28T05:10:09.785Z,933.63
2017-11-28T05:10:37.962Z,933.66
2017-11-28T05:11:05.957Z,933.61
2017-11-28T05:11:34.118Z,933.6
2017-11-28T05:12:02.218Z,933.6
2017-11-28T05:12:30.273Z,933.65
2017-11-28T05:12:58.324Z,933.61
2017-11-28T05:13:26.465Z,933.59
2017-11-28T05:13:54.542Z,933.6
2017-11-28T05:14:22.731Z,933.59
2017-11-28T05:14:50.764Z,933.61
2017-11-28T05:15:18.883Z,933.57
2017-11-28T05:15:46.949Z,933.57
2017-11-28T05:16:14.978Z,933.57
2017-11-28T05:16:43.040Z,933.56
2017-11-28T05:17:11.070Z,933.58
2017-11-28T05:17:39.318Z,933.55
2017-11-28T05:18:07.475Z,933.55
2017-11-28T05:18:35.437Z,933.58
2017-11-28T05:19:03.540Z,933.54
2017-11-28T05:19:31.695Z,933.53
2017-11-28T05:19:59.888Z,933.53
2017-11-28T05:20:28.032Z,933.57
2017-11-28T05:20:56.104Z,933.54
2017-11-28T05:21:24.306Z,933.52
2017-11-28T05:21:52.453Z,933.56
2017-11-28T05:22:20.809Z,933.54
2017-11-28T05:22:49.733Z,933.58
2017-11-28T05:23:17.897Z,933.59
2017-11-28T05:23:46.013Z,933.6
2017-11-28T05:24:14.158Z,933.6
2017-11-28T05:24:42.352Z,933.56
2017-11-28T05:25:10.557Z,933.58
2017-11-28T05:25:38.701Z,933.58
2017-11-28T05:26:06.862Z,933.53
2017-11-28T05:26:34.976Z,933.55
2017-11-28T05:27:03.072Z,933.54
2017-11-28T05:27:31.242Z,933.52
2017-11-28T05:27:59.424Z,933.55
2017-11-28T05:28:27.646Z,933.53
2017-11-28T05:28:55.600Z,933.53
2017-11-28T05:29:23.807Z,933.52
2017-11-28T05:29:52.062Z,933.5
2017-11-28T05:30:20.089Z,933.49
2017-11-28T05:30:48.167Z,933.48
2017-11-28T05:31:16.291Z,933.52
2017-11-28T05:31:44.465Z,933.53
2017-11-28T05:32:12.647Z,933.52
2017-11-28T05:32:40.695Z,933.55
2017-11-28T05:33:08.688Z,933.51
2017-11-28T05:33:36.815Z,933.54
2017-11-28T05:34:05.405Z,933.55
2017-11-28T05:34:33.652Z,933.55
2017-11-28T05:35:01.833Z,933.53
2017-11-28T05:35:30.013Z,933.57
2017-11-28T05:35:58.124Z,933.6
2017-11-28T05:36:26.245Z,933.56
2017-11-28T05:36:54.358Z,933.6
2017-11-28T05:37:22.493Z,933.58
2017-11-28T05:37:50.646Z,933.59
2017-11-28T05:38:18.693Z,933.56
2017-11-28T05:38:46.750Z,933.59
2017-11-28T05:39:15.194Z,933.64
2017-11-28T05:39:43.332Z,933.59
2017-11-28T05:40:11.485Z,933.6
2017-11-28T05:40:39.756Z,933.63
2017-11-28T05:41:07.952Z,933.63
2017-11-28T05:41:35.992Z,933.62
2017-11-28T05:42:04.029Z,933.6
2017-11-28T05:42:32.266Z,933.61
2017-11-28T05:43:00.400Z,933.57
2017-11-28T05:43:28.563Z,933.66
2017-11-28T05:43:56.659Z,933.63
2017-11-28T05:44:24.694Z,933.62
2017-11-28T05:44:52.879Z,933.62
2017-11-28T05:45:20.832Z,933.62
2017-11-28T05:45:49.032Z,933.65
2017-11-28T05:46:17.164Z,933.64
2017-11-28T05:46:45.339Z,933.67
2017-11-28T05:47:13.499Z,933.68
2017-11-28T05:47:41.572Z,933.67
2017-11-28T05:48:09.627Z,933.67
2017-11-28T05:48:37.709Z,933.66
2017-11-28T05:49:05.912Z,933.67
2017-11-28T05:49:34.187Z,933.65
2017-11-28T05:50:02.566Z,933.7
2017-11-28T05:50:30.721Z,933.66
2017-11-28T05:50:58.896Z,933.62
2017-11-28T05:51:27.076Z,933.66
2017-11-28T05:51:55.285Z,933.65
2017-11-28T05:52:23.495Z,933.66